createdAt,value
2023-04-21T00:02:15.878Z,99.90
2023-04-21T00:04:45.558Z,99.90
2023-04-21T00:07:14.682Z,99.90
2023-04-21T00:09:41.900Z,99.90
2023-04-21T00:12:09.174Z,99.90
2023-04-21T00:14:35.952Z,99.90
2023-04-21T00:17:02.982Z,99.90
2023-04-21T00:19:29.689Z,99.90
2023-04-21T00:21:58.858Z,99.90
2023-04-21T00:24:26.662Z,99.90
2023-04-21T00:26:53.374Z,99.90
2023-04-21T00:29:20.216Z,99.90
2023-04-21T00:31:47.358Z,99.90
2023-04-21T00:34:14.394Z,99.90
2023-04-21T00:36:41.168Z,99.90
2023-04-21T00:39:07.926Z,99.90
2023-04-21T00:41:36.059Z,99.90
2023-04-21T00:44:09.790Z,99.90
2023-04-21T00:46:37.042Z,99.90
2023-04-21T00:49:06.166Z,99.90
2023-04-21T00:51:34.624Z,99.90
2023-04-21T00:54:04.210Z,99.90
2023-04-21T00:56:32.379Z,99.90
2023-04-21T00:59:03.679Z,99.90
2023-04-21T01:01:32.018Z,99.90
2023-04-21T01:03:59.741Z,99.90
2023-04-21T01:06:34.815Z,99.90
2023-04-21T01:09:03.623Z,99.90
2023-04-21T01:11:31.392Z,99.90
2023-04-21T01:13:58.108Z,99.90
2023-04-21T01:16:25.000Z,99.90
2023-04-21T01:18:54.637Z,99.90
2023-04-21T01:21:21.978Z,99.90
2023-04-21T01:23:48.767Z,99.90
2023-04-21T01:26:19.197Z,99.90
2023-04-21T01:28:47.648Z,99.90
2023-04-21T01:31:18.184Z,99.90
2023-04-21T01:33:45.545Z,99.90
2023-04-21T01:36:12.254Z,99.90
2023-04-21T01:38:42.413Z,99.90
2023-04-21T01:41:10.664Z,99.90
2023-04-21T01:43:37.498Z,99.90
2023-04-21T01:46:07.445Z,99.90
2023-04-21T01:48:34.213Z,99.90
2023-04-21T01:51:00.790Z,99.90
2023-04-21T01:53:27.420Z,99.90
2023-04-21T01:55:54.451Z,99.90
2023-04-21T01:58:21.958Z,99.90
2023-04-21T02:00:48.568Z,99.90
2023-04-21T02:03:15.439Z,99.90
2023-04-21T02:05:45.096Z,99.90
2023-04-21T02:08:11.666Z,99.90
2023-04-21T02:10:38.275Z,99.90
2023-04-21T02:13:05.055Z,99.90
2023-04-21T02:15:31.743Z,99.90
2023-04-21T02:17:58.483Z,99.90
2023-04-21T02:20:25.428Z,99.90
2023-04-21T02:22:52.130Z,99.90
2023-04-21T02:25:19.988Z,99.90
2023-04-21T02:27:46.717Z,99.90
2023-04-21T02:30:13.579Z,99.90
2023-04-21T02:32:40.414Z,99.90
2023-04-21T02:35:07.522Z,99.90
2023-04-21T02:37:35.630Z,99.90
2023-04-21T02:40:02.680Z,99.90
2023-04-21T02:42:29.327Z,99.90
2023-04-21T02:44:55.915Z,99.90
2023-04-21T02:47:24.098Z,99.90
2023-04-21T02:49:50.743Z,99.90
2023-04-21T02:52:17.439Z,99.90
2023-04-21T02:54:44.075Z,99.90
2023-04-21T02:57:10.805Z,99.90
2023-04-21T02:59:37.392Z,99.90
2023-04-21T03:02:03.981Z,99.90
2023-04-21T03:04:32.383Z,99.90
2023-04-21T03:06:59.113Z,99.90
2023-04-21T03:09:25.888Z,99.90
2023-04-21T03:11:52.507Z,99.90
2023-04-21T03:14:19.192Z,99.90
2023-04-21T03:16:47.273Z,99.90
2023-04-21T03:19:17.189Z,99.90
2023-04-21T03:21:43.928Z,99.90
2023-04-21T03:24:11.245Z,99.90
2023-04-21T03:26:40.440Z,99.90
2023-04-21T03:29:07.270Z,99.90
2023-04-21T03:31:33.943Z,99.90
2023-04-21T03:34:00.553Z,99.90
2023-04-21T03:36:27.297Z,99.90
2023-04-21T03:38:54.126Z,99.90
2023-04-21T03:41:20.915Z,99.90
2023-04-21T03:43:50.986Z,99.90
2023-04-21T03:46:21.606Z,99.90
2023-04-21T03:48:48.798Z,99.90
2023-04-21T03:51:15.706Z,99.90
2023-04-21T03:53:42.476Z,99.90
2023-04-21T03:56:09.341Z,99.90
2023-04-21T03:58:36.734Z,99.90
2023-04-21T04:01:06.470Z,99.90
2023-04-21T04:03:33.940Z,99.90
2023-04-21T04:06:01.174Z,99.90
2023-04-21T04:08:27.891Z,99.90
2023-04-21T04:10:55.186Z,99.90
2023-04-21T04:13:22.470Z,99.90
2023-04-21T04:15:50.187Z,99.90
2023-04-21T04:18:17.083Z,99.90
2023-04-21T04:20:43.672Z,99.90
2023-04-21T04:23:10.401Z,99.90
2023-04-21T04:25:37.264Z,99.90
2023-04-21T04:28:05.320Z,99.90
2023-04-21T04:30:33.195Z,99.90
2023-04-21T04:32:59.845Z,99.90
2023-04-21T04:35:26.605Z,99.90
2023-04-21T04:37:54.645Z,99.90
2023-04-21T04:40:22.370Z,99.90
2023-04-21T04:42:49.036Z,99.90
2023-04-21T04:45:16.602Z,99.90
2023-04-21T04:47:44.386Z,99.90
2023-04-21T04:50:11.055Z,99.90
2023-04-21T04:52:37.808Z,99.90
2023-04-21T04:55:04.800Z,99.90
2023-04-21T04:57:31.592Z,99.90
2023-04-21T04:59:58.308Z,99.90
2023-04-21T05:02:25.255Z,99.90
2023-04-21T05:04:52.401Z,99.90
2023-04-21T05:07:19.524Z,99.90
2023-04-21T05:09:46.313Z,99.90
2023-04-21T05:12:13.047Z,99.90
2023-04-21T05:14:39.758Z,99.90
2023-04-21T05:17:06.421Z,99.90
2023-04-21T05:19:36.524Z,99.90
2023-04-21T05:22:06.375Z,99.90
2023-04-21T05:24:34.099Z,99.90
2023-04-21T05:27:02.854Z,99.90
2023-04-21T05:29:34.112Z,99.90
2023-04-21T05:32:01.525Z,99.90
2023-04-21T05:34:31.313Z,99.90
2023-04-21T05:36:58.224Z,99.90
2023-04-21T05:39:26.912Z,99.90
2023-04-21T05:41:53.481Z,99.90
2023-04-21T05:44:20.301Z,99.90
2023-04-21T05:50:22.078Z,99.90
2023-04-21T05:52:48.764Z,99.90
2023-04-21T05:55:15.494Z,99.90
2023-04-21T05:57:42.210Z,99.90
2023-04-21T06:00:09.547Z,99.90
2023-04-21T06:02:37.480Z,99.90
2023-04-21T06:05:04.615Z,99.90
2023-04-21T06:07:31.462Z,99.90
2023-04-21T06:10:33.549Z,99.90
2023-04-21T06:13:00.512Z,99.90
2023-04-21T06:15:27.242Z,99.90
2023-04-21T06:17:57.263Z,99.90
2023-04-21T06:20:24.032Z,99.90
2023-04-21T06:22:50.895Z,99.90
2023-04-21T06:25:17.677Z,99.90
2023-04-21T06:27:45.619Z,99.90
2023-04-21T06:30:12.953Z,99.90
2023-04-21T06:32:40.290Z,99.90
2023-04-21T06:35:07.287Z,99.90
2023-04-21T06:37:34.017Z,99.90
2023-04-21T06:40:00.804Z,99.90
2023-04-21T06:42:27.392Z,99.90
2023-04-21T06:44:54.024Z,99.90
2023-04-21T06:47:20.692Z,99.90
2023-04-21T06:49:47.424Z,99.90
2023-04-21T06:52:14.441Z,99.90
2023-04-21T06:54:41.189Z,99.90
2023-04-21T06:57:07.874Z,99.90
2023-04-21T06:59:34.689Z,99.90
2023-04-21T07:02:01.714Z,99.90
2023-04-21T07:04:32.053Z,99.90
2023-04-21T07:07:01.096Z,99.90
2023-04-21T07:09:29.216Z,99.90
2023-04-21T07:11:55.908Z,99.90
2023-04-21T07:14:22.544Z,99.90
2023-04-21T07:16:49.218Z,99.90
2023-04-21T07:19:15.951Z,99.90
2023-04-21T07:21:42.626Z,99.90
2023-04-21T07:24:09.223Z,99.90
2023-04-21T07:26:35.805Z,99.90
2023-04-21T07:29:02.477Z,99.90
2023-04-21T07:31:29.127Z,99.90
2023-04-21T07:33:55.885Z,99.90
2023-04-21T07:36:22.528Z,99.90
2023-04-21T07:38:49.246Z,99.90
2023-04-21T07:41:15.945Z,99.90
2023-04-21T07:43:42.490Z,99.90
2023-04-21T07:46:09.159Z,99.90
2023-04-21T07:48:35.816Z,99.90
2023-04-21T07:51:03.296Z,99.90
2023-04-21T07:53:30.543Z,99.90
2023-04-21T07:55:57.256Z,99.90
2023-04-21T07:58:23.922Z,99.90
2023-04-21T08:00:50.875Z,99.90
2023-04-21T08:03:17.567Z,99.90
2023-04-21T08:05:44.527Z,99.90
2023-04-21T08:08:14.048Z,99.90
2023-04-21T08:10:42.074Z,99.90
2023-04-21T08:13:08.669Z,99.90
2023-04-21T08:15:35.341Z,99.90
2023-04-21T08:18:02.134Z,99.90
2023-04-21T08:20:29.007Z,99.90
2023-04-21T08:22:55.844Z,99.90
2023-04-21T08:25:25.110Z,99.90
2023-04-21T08:27:52.077Z,99.90
2023-04-21T08:30:20.198Z,99.90
2023-04-21T08:32:46.976Z,99.90
2023-04-21T08:35:13.911Z,99.90
2023-04-21T08:37:40.656Z,99.90
2023-04-21T08:40:08.095Z,99.90
2023-04-21T08:42:36.874Z,99.90
2023-04-21T08:45:04.008Z,99.90
2023-04-21T08:47:32.890Z,99.90
2023-04-21T08:50:01.725Z,99.90
2023-04-21T08:52:28.321Z,99.90
2023-04-21T08:54:56.492Z,99.90
2023-04-21T08:57:23.126Z,99.90
2023-04-21T08:59:49.760Z,99.90
2023-04-21T09:02:18.978Z,99.90
2023-04-21T09:04:54.765Z,99.90
2023-04-21T09:07:34.968Z,99.90
2023-04-21T09:10:02.953Z,99.90
2023-04-21T09:12:30.065Z,99.90
2023-04-21T09:15:00.962Z,99.90
2023-04-21T09:17:36.003Z,99.90
2023-04-21T09:20:17.780Z,99.90
2023-04-21T09:22:45.452Z,99.90
2023-04-21T09:25:17.625Z,99.90
2023-04-21T09:27:44.312Z,99.90
2023-04-21T09:30:11.376Z,99.90
2023-04-21T09:32:39.678Z,99.90
2023-04-21T09:35:10.899Z,99.90
2023-04-21T09:37:39.025Z,99.90
2023-04-21T09:40:06.533Z,99.90
2023-04-21T09:42:36.983Z,99.90
2023-04-21T09:47:42.618Z,99.90
2023-04-21T09:50:13.133Z,99.90
2023-04-21T09:52:40.261Z,99.90
2023-04-21T09:55:13.697Z,99.90
2023-04-21T09:57:42.943Z,99.90
2023-04-21T10:00:12.295Z,99.90
2023-04-21T10:02:44.589Z,99.90
2023-04-21T10:05:12.933Z,99.90
2023-04-21T10:07:39.962Z,99.90
2023-04-21T10:10:27.225Z,99.90
2023-04-21T10:12:54.489Z,99.90
2023-04-21T10:15:37.567Z,99.90
2023-04-21T10:18:21.535Z,99.90
2023-04-21T10:21:04.485Z,99.90
2023-04-21T10:23:37.068Z,99.90
2023-04-21T10:26:22.423Z,99.90
2023-04-21T10:29:00.114Z,99.90
2023-04-21T10:31:52.838Z,99.90
2023-04-21T10:34:26.401Z,99.90
2023-04-21T10:36:56.141Z,99.90
2023-04-21T10:39:28.261Z,99.90
2023-04-21T10:42:13.283Z,99.90
2023-04-21T10:44:58.563Z,99.90
2023-04-21T10:47:48.903Z,99.90
2023-04-21T10:50:17.359Z,99.90
2023-04-21T10:53:11.335Z,99.90
2023-04-21T10:55:39.249Z,99.90
2023-04-21T10:58:11.273Z,99.90
2023-04-21T11:00:38.769Z,99.90
2023-04-21T11:03:08.022Z,99.90
2023-04-21T11:05:40.505Z,99.90
2023-04-21T11:08:15.288Z,99.90
2023-04-21T11:10:55.549Z,99.90
2023-04-21T11:13:23.962Z,99.90
2023-04-21T11:15:57.894Z,99.90
2023-04-21T11:18:42.388Z,99.90
2023-04-21T11:21:12.581Z,99.90
2023-04-21T11:23:49.260Z,99.90
2023-04-21T11:26:16.240Z,99.90
2023-04-21T11:28:43.082Z,99.90
2023-04-21T11:31:10.986Z,99.90
2023-04-21T11:33:40.702Z,99.90
2023-04-21T11:36:07.825Z,99.90
2023-04-21T11:38:41.380Z,99.90
2023-04-21T11:41:10.496Z,99.90
2023-04-21T11:43:38.378Z,99.90
2023-04-21T11:46:18.699Z,99.90
2023-04-21T11:48:45.752Z,99.90
2023-04-21T11:51:20.030Z,99.90
2023-04-21T11:53:48.875Z,99.90
2023-04-21T11:56:21.623Z,99.90
2023-04-21T11:58:53.735Z,99.90
2023-04-21T12:01:21.577Z,99.90
2023-04-21T12:03:55.860Z,99.90
2023-04-21T12:06:28.598Z,99.90
2023-04-21T12:08:59.779Z,99.90
2023-04-21T12:11:30.817Z,99.90
2023-04-21T12:13:59.169Z,99.90
2023-04-21T12:16:27.949Z,99.90
2023-04-21T12:18:55.847Z,99.90
2023-04-21T12:21:27.068Z,99.90
2023-04-21T12:23:53.740Z,99.90
2023-04-21T12:26:22.415Z,99.90
2023-04-21T12:28:49.535Z,99.90
2023-04-21T12:31:16.319Z,99.90
2023-04-21T12:33:42.975Z,99.90
2023-04-21T12:36:09.997Z,99.90
2023-04-21T12:38:38.213Z,99.90
2023-04-21T12:41:05.801Z,99.90
2023-04-21T12:43:32.379Z,99.90
2023-04-21T12:45:59.924Z,99.90
2023-04-21T12:48:26.660Z,99.90
2023-04-21T12:50:53.331Z,99.90
2023-04-21T12:53:19.943Z,99.90
2023-04-21T12:55:56.863Z,99.90
2023-04-21T12:58:28.048Z,99.90
2023-04-21T13:00:55.472Z,99.90
2023-04-21T13:03:22.467Z,99.90
2023-04-21T13:05:49.575Z,99.90
2023-04-21T13:08:16.393Z,99.90
2023-04-21T13:10:43.211Z,99.90
2023-04-21T13:13:09.824Z,99.90
2023-04-21T13:15:36.597Z,99.90
2023-04-21T13:18:03.543Z,99.90
2023-04-21T13:20:30.249Z,99.90
2023-04-21T13:22:56.961Z,99.90
2023-04-21T13:25:23.779Z,99.90
2023-04-21T13:27:51.631Z,99.90
2023-04-21T13:30:19.518Z,99.90
2023-04-21T13:32:46.362Z,99.90
2023-04-21T13:35:14.123Z,99.90
2023-04-21T13:37:41.347Z,99.90
2023-04-21T13:40:10.046Z,99.90
2023-04-21T13:42:37.784Z,99.90
2023-04-21T13:45:05.362Z,99.90
2023-04-21T13:47:33.480Z,99.90
2023-04-21T13:50:00.831Z,99.90
2023-04-21T13:52:27.668Z,99.90
2023-04-21T13:54:54.501Z,99.90
2023-04-21T13:57:21.273Z,99.90
2023-04-21T13:59:48.304Z,99.90
2023-04-21T14:02:15.067Z,99.90
2023-04-21T14:04:42.191Z,99.90
2023-04-21T14:07:09.297Z,99.90
2023-04-21T14:09:36.064Z,99.90
2023-04-21T14:12:03.583Z,99.90
2023-04-21T14:14:38.770Z,99.90
2023-04-21T14:17:06.545Z,98.00
2023-04-21T14:19:34.798Z,98.30
2023-04-21T14:22:02.071Z,98.30
2023-04-21T14:24:30.015Z,98.10
2023-04-21T14:26:58.538Z,97.90
2023-04-21T14:29:25.951Z,98.70
2023-04-21T14:31:57.577Z,97.40
2023-04-21T14:34:26.011Z,97.50
2023-04-21T14:36:53.400Z,98.50
2023-04-21T14:39:20.200Z,96.20
2023-04-21T14:41:46.780Z,96.20
2023-04-21T14:44:13.390Z,97.30
2023-04-21T14:46:40.157Z,98.60
2023-04-21T14:49:06.954Z,97.70
2023-04-21T14:51:36.039Z,95.70
2023-04-21T14:54:02.729Z,93.90
2023-04-21T14:56:29.493Z,93.20
2023-04-21T14:58:56.113Z,93.20
2023-04-21T15:01:25.789Z,92.40
2023-04-21T15:03:53.193Z,91.90
2023-04-21T15:06:20.931Z,91.70
2023-04-21T15:08:47.826Z,91.70
2023-04-21T15:11:14.837Z,90.50
2023-04-21T15:13:41.558Z,89.60
2023-04-21T15:16:08.172Z,90.40
2023-04-21T15:18:34.784Z,90.00
2023-04-21T15:21:05.616Z,90.00
2023-04-21T15:23:33.638Z,89.10
2023-04-21T15:26:00.379Z,86.60
2023-04-21T15:28:27.021Z,89.00
2023-04-21T15:30:53.675Z,86.80
2023-04-21T15:33:20.486Z,89.70
2023-04-21T15:35:48.324Z,87.60
2023-04-21T15:38:14.931Z,87.80
2023-04-21T15:40:53.208Z,88.30
2023-04-21T15:43:26.685Z,85.40
2023-04-21T15:45:53.501Z,87.50
2023-04-21T15:48:21.973Z,86.10
2023-04-21T15:50:49.035Z,86.20
2023-04-21T15:53:17.800Z,84.30
2023-04-21T15:55:45.946Z,84.30
2023-04-21T15:58:13.543Z,84.90
2023-04-21T16:00:44.282Z,85.20
2023-04-21T16:03:11.033Z,86.40
2023-04-21T16:05:38.108Z,86.30
2023-04-21T16:08:04.847Z,87.90
2023-04-21T16:10:31.453Z,87.10
2023-04-21T16:12:58.066Z,87.80
2023-04-21T16:15:25.255Z,89.40
2023-04-21T16:17:52.866Z,87.40
2023-04-21T16:20:19.817Z,90.70
2023-04-21T16:22:47.925Z,91.10
2023-04-21T16:25:17.043Z,90.60
2023-04-21T16:27:43.852Z,91.40
2023-04-21T16:30:11.026Z,90.90
2023-04-21T16:32:37.753Z,91.20
2023-04-21T16:35:07.948Z,91.80
2023-04-21T16:37:40.119Z,90.90
2023-04-21T16:40:08.440Z,91.30
2023-04-21T16:42:35.991Z,91.50
2023-04-21T16:45:04.476Z,91.70
2023-04-21T16:47:41.258Z,91.90
2023-04-21T16:50:08.884Z,92.70
2023-04-21T16:52:35.698Z,92.80
2023-04-21T16:55:05.363Z,93.40
2023-04-21T16:57:32.903Z,95.30
2023-04-21T16:59:59.672Z,93.90
2023-04-21T17:02:26.420Z,94.80
2023-04-21T17:04:53.202Z,94.00
2023-04-21T17:07:19.766Z,94.70
2023-04-21T17:09:46.357Z,93.90
2023-04-21T17:12:12.985Z,93.80
2023-04-21T17:14:40.136Z,94.30
2023-04-21T17:17:07.234Z,95.40
2023-04-21T17:19:34.003Z,97.00
2023-04-21T17:22:00.885Z,96.50
2023-04-21T17:24:31.240Z,96.50
2023-04-21T17:27:04.871Z,97.20
2023-04-21T17:29:31.785Z,98.80
2023-04-21T17:31:58.646Z,99.30
2023-04-21T17:34:25.452Z,99.90
2023-04-21T17:36:52.108Z,99.10
2023-04-21T17:39:18.793Z,98.30
2023-04-21T17:41:47.109Z,97.90
2023-04-21T17:44:13.804Z,98.60
2023-04-21T17:46:41.192Z,99.90
2023-04-21T17:49:07.948Z,99.90
2023-04-21T17:51:35.985Z,99.90
2023-04-21T17:54:03.154Z,99.90
2023-04-21T17:56:29.807Z,99.90
2023-04-21T17:58:56.498Z,99.90
2023-04-21T18:01:23.282Z,99.90
2023-04-21T18:03:50.332Z,99.90
2023-04-21T18:06:17.478Z,99.90
2023-04-21T18:08:44.199Z,99.90
2023-04-21T18:11:12.162Z,99.90
2023-04-21T18:13:38.846Z,99.90
2023-04-21T18:16:05.740Z,99.90
2023-04-21T18:18:32.409Z,99.90
2023-04-21T18:20:59.676Z,99.90
2023-04-21T18:23:26.360Z,99.90
2023-04-21T18:25:55.651Z,99.20
2023-04-21T18:28:22.352Z,99.90
2023-04-21T18:30:49.098Z,98.20
2023-04-21T18:33:15.851Z,98.30
2023-04-21T18:35:42.575Z,98.20
2023-04-21T18:38:13.368Z,97.90
2023-04-21T18:40:40.753Z,98.70
2023-04-21T18:43:11.218Z,98.50
2023-04-21T18:45:38.691Z,98.80
2023-04-21T18:48:09.050Z,98.80
2023-04-21T18:50:42.165Z,98.70
2023-04-21T18:53:11.597Z,99.40
2023-04-21T18:55:49.441Z,99.90
2023-04-21T18:58:16.351Z,99.90
2023-04-21T19:00:54.349Z,99.90
2023-04-21T19:03:21.257Z,99.90
2023-04-21T19:05:59.347Z,99.90
2023-04-21T19:08:40.784Z,99.90
2023-04-21T19:11:37.610Z,99.90
2023-04-21T19:14:07.661Z,99.90
2023-04-21T19:16:43.286Z,99.90
2023-04-21T19:19:15.053Z,99.90
2023-04-21T19:21:43.101Z,99.90
2023-04-21T19:24:10.013Z,99.90
2023-04-21T19:26:36.755Z,99.90
2023-04-21T19:29:11.173Z,99.90
2023-04-21T19:31:38.830Z,99.90
2023-04-21T19:34:14.423Z,99.90
2023-04-21T19:36:44.046Z,99.90
2023-04-21T19:39:15.691Z,99.90
2023-04-21T19:41:45.734Z,99.90
2023-04-21T19:44:15.286Z,99.90
2023-04-21T19:46:46.546Z,99.90
2023-04-21T19:49:18.144Z,99.90
2023-04-21T19:51:45.003Z,99.90
2023-04-21T19:54:12.595Z,99.90
2023-04-21T19:56:40.203Z,99.90
2023-04-21T19:59:07.248Z,99.90
2023-04-21T20:01:35.786Z,99.90
2023-04-21T20:04:03.567Z,99.90
2023-04-21T20:06:31.679Z,99.90
2023-04-21T20:08:58.555Z,99.90
2023-04-21T20:11:28.780Z,99.90
2023-04-21T20:13:55.902Z,99.90
2023-04-21T20:16:23.680Z,99.90
2023-04-21T20:18:50.418Z,99.90
2023-04-21T20:21:17.065Z,99.90
2023-04-21T20:23:43.763Z,99.90
2023-04-21T20:26:10.698Z,99.90
2023-04-21T20:28:37.351Z,99.90
2023-04-21T20:31:04.077Z,99.90
2023-04-21T20:33:30.802Z,99.90
2023-04-21T20:36:02.499Z,99.90
2023-04-21T20:38:30.216Z,99.90
2023-04-21T20:40:56.790Z,99.90
2023-04-21T20:43:23.334Z,99.90
2023-04-21T20:45:50.600Z,99.90
2023-04-21T20:48:17.357Z,99.90
2023-04-21T20:50:45.969Z,99.90
2023-04-21T20:53:13.510Z,99.90
2023-04-21T20:55:40.116Z,99.90
2023-04-21T20:58:06.651Z,99.90
2023-04-21T21:00:34.570Z,99.90
2023-04-21T21:03:01.493Z,99.90
2023-04-21T21:05:33.202Z,99.90
2023-04-21T21:07:59.876Z,99.90
2023-04-21T21:10:26.758Z,99.90
2023-04-21T21:12:53.451Z,99.90
2023-04-21T21:15:20.100Z,99.90
2023-04-21T21:17:46.743Z,99.90
2023-04-21T21:20:13.379Z,99.90
2023-04-21T21:22:40.015Z,99.90
2023-04-21T21:25:06.927Z,99.90
2023-04-21T21:27:33.538Z,99.90
2023-04-21T21:30:00.157Z,99.90
2023-04-21T21:32:26.837Z,99.90
2023-04-21T21:34:53.522Z,99.90
2023-04-21T21:37:21.043Z,99.90
2023-04-21T21:39:47.865Z,99.90
2023-04-21T21:42:14.462Z,99.90
2023-04-21T21:44:41.012Z,99.90
2023-04-21T21:47:07.637Z,99.90
2023-04-21T21:49:34.316Z,99.90
2023-04-21T21:52:02.402Z,99.90
2023-04-21T21:54:28.993Z,99.90
2023-04-21T21:56:56.188Z,99.90
2023-04-21T21:59:22.965Z,99.90
2023-04-21T22:01:50.974Z,99.90
2023-04-21T22:04:17.711Z,99.90
2023-04-21T22:06:45.349Z,99.90
2023-04-21T22:09:12.050Z,99.90
2023-04-21T22:11:38.746Z,99.90
2023-04-21T22:14:18.623Z,99.90
2023-04-21T22:16:50.451Z,99.90
2023-04-21T22:19:18.935Z,99.90
2023-04-21T22:21:45.966Z,99.90
2023-04-21T22:24:12.721Z,99.90
2023-04-21T22:26:39.333Z,99.90
2023-04-21T22:29:05.931Z,99.90
2023-04-21T22:31:32.793Z,99.90
2023-04-21T22:33:59.498Z,99.90
2023-04-21T22:36:26.117Z,99.90
2023-04-21T22:38:52.727Z,99.90
2023-04-21T22:41:19.511Z,99.90
2023-04-21T22:43:46.138Z,99.90
2023-04-21T22:46:12.960Z,99.90
2023-04-21T22:48:39.722Z,99.90
2023-04-21T22:51:07.302Z,99.90
2023-04-21T22:53:34.102Z,99.90
2023-04-21T22:56:00.726Z,99.90
2023-04-21T22:58:27.388Z,99.90
2023-04-21T23:00:54.112Z,99.90
2023-04-21T23:03:21.727Z,99.90
2023-04-21T23:05:48.424Z,99.90
2023-04-21T23:08:15.111Z,99.90
2023-04-21T23:10:41.798Z,99.90
2023-04-21T23:13:08.473Z,99.90
2023-04-21T23:15:35.198Z,99.90
2023-04-21T23:18:02.609Z,99.90
2023-04-21T23:20:29.254Z,99.90
2023-04-21T23:22:55.919Z,99.90
2023-04-21T23:25:22.984Z,99.90
2023-04-21T23:27:49.700Z,99.90
2023-04-21T23:30:16.442Z,99.90
2023-04-21T23:32:43.691Z,99.90
2023-04-21T23:35:10.675Z,99.90
2023-04-21T23:37:37.389Z,99.90
2023-04-21T23:40:08.897Z,99.90
2023-04-21T23:42:36.154Z,99.90
2023-04-21T23:45:03.602Z,99.90
2023-04-21T23:47:30.704Z,99.90
2023-04-21T23:49:57.697Z,99.90
2023-04-21T23:52:24.395Z,99.90
2023-04-21T23:54:51.180Z,99.90
2023-04-21T23:57:18.524Z,99.90
2023-04-21T23:59:45.733Z,99.90
